MSC Gina — 3FLY9 — position and weather

sailwx.info

Track history (hours):
 
Tides and Currents Weather Stations Pressure Air Temp Water Temp Dewpoint Dewpoint Depression Visibility Wind Speed Wind Dir Waves Ship Positions

MSC Gina

Last reported at 2017-May-20 19:43 UTC. Time now 2017-May-24 02:14 UTC.
Position N 26°20' W 079°26'.

Length 45 m; draft 2.3 m.

Type: Other ship. MMSI: 357542000.

Date/timePositionNaut miles runAvg speedWind from/ knotsBaromVisibWave heightAir tempDewpointWater temp
2017-May-20 19:43N 26°20' W 079°26'522.4
2017-May-20 19:30N 26°15' W 079°26'2022.6
2017-May-20 18:38N 25°55' W 079°30'322.7
2017-May-20 18:30N 25°53' W 079°31'1522.9
2017-May-20 17:52N 25°38' W 079°33'922.6
2017-May-20 17:28N 25°29' W 079°34'78016.1
2017-May-18 16:57N 28°44' W 093°43'818.1
2017-May-18 16:30N 28°49' W 093°50'918.1
2017-May-18 16:00N 28°54' W 093°59'918.1
2017-May-18 15:30N 28°59' W 094°08'3916.3
2017-May-18 13:08N 29°21' W 094°44'212.9
2017-May-18 13:00N 29°21' W 094°46'612.6
2017-May-18 12:30N 29°26' W 094°50'713.4
2017-May-18 12:00N 29°32' W 094°53'612.6
2017-May-18 11:30N 29°37' W 094°58'2 4.5
2017-May-18 10:58N 29°37' W 095°00'0 0.0
2017-May-18 10:28N 29°37' W 095°00'0 0.0
2017-May-18 09:58N 29°37' W 095°00'0 0.0
2017-May-18 09:28N 29°37' W 095°00'0 0.0
2017-May-18 08:58N 29°37' W 095°00'0 0.0
2017-May-18 08:28N 29°37' W 095°00'0 0.0
2017-May-18 06:37N 29°37' W 095°00'0 0.1
2017-May-18 06:28N 29°37' W 095°00'0 0.0
2017-May-18 05:58N 29°37' W 095°00'0 0.0
2017-May-18 05:28N 29°37' W 095°00'0 0.0
2017-May-18 04:58N 29°37' W 095°00'0 0.0
2017-May-18 04:28N 29°37' W 095°00'0 0.0
2017-May-18 03:58N 29°37' W 095°00'0 0.0
2017-May-18 03:28N 29°37' W 095°00'0 0.0
2017-May-18 02:58N 29°37' W 095°00'0 0.0
2017-May-18 02:28N 29°37' W 095°00'0 0.0
2017-May-18 01:58N 29°37' W 095°00'0 0.0
2017-May-18 01:28N 29°37' W 095°00'0 0.0
2017-May-18 00:58N 29°37' W 095°00'0 0.0
2017-May-18 00:28N 29°37' W 095°00'0 0.0
2017-May-17 23:58N 29°37' W 095°00'0 0.0
2017-May-17 23:28N 29°37' W 095°00'0 0.0
2017-May-17 23:01N 29°37' W 095°00'0 0.0
2017-May-17 22:31N 29°37' W 095°00'1 1.6
2017-May-17 22:00N 29°37' W 095°01'1 2.5
2017-May-17 21:30N 29°37' W 094°60'3 5.7
2017-May-17 21:00N 29°36' W 094°57'612.0
2017-May-17 20:31N 29°31' W 094°53'713.2
2017-May-17 20:01N 29°25' W 094°50'711.8
2017-May-17 19:23N 29°21' W 094°43'56412.1
2017-May-15 20:47N 20°01' W 095°53'518.4
2017-May-15 20:30N 19°55' W 095°54'918.3
2017-May-15 20:00N 19°46' W 095°55'611.9
2017-May-15 19:30N 19°41' W 095°55'6 6.1
2017-May-15 18:34N 19°35' W 095°56'117.9
2017-May-15 18:31N 19°34' W 095°56'918.3
2017-May-15 18:01N 19°25' W 095°57'918.8
2017-May-15 17:31N 19°15' W 095°58'714.7
2017-May-15 17:00N 19°11' W 096°04'4 6.9
2017-May-15 16:29N 19°12' W 096°08'0 0.7
2017-May-15 15:59N 19°13' W 096°08'0 0.0
2017-May-15 15:29N 19°13' W 096°08'0 0.0
2017-May-15 14:59N 19°13' W 096°08'0 0.0
2017-May-15 13:56N 19°13' W 096°08'0 0.0
2017-May-15 13:29N 19°13' W 096°08'0 0.0
2017-May-15 12:56N 19°13' W 096°08'0 0.0
2017-May-15 12:26N 19°13' W 096°08'0 0.0
2017-May-15 11:59N 19°13' W 096°08'0 0.0
2017-May-15 11:29N 19°13' W 096°08'0 0.0
2017-May-15 10:56N 19°13' W 096°08'0 0.0
2017-May-15 10:26N 19°13' W 096°08'0 0.0
2017-May-15 09:59N 19°13' W 096°08'0 0.0
2017-May-15 09:29N 19°13' W 096°08'0 0.0
2017-May-15 08:59N 19°13' W 096°08'0 0.0
2017-May-15 08:26N 19°13' W 096°08'0 0.0
2017-May-15 07:59N 19°13' W 096°08'0 0.0
2017-May-15 07:29N 19°13' W 096°08'0 0.0
2017-May-15 06:59N 19°13' W 096°08'0 0.0
2017-May-15 06:29N 19°13' W 096°08'0 0.0
2017-May-15 05:59N 19°13' W 096°08'0 0.0
2017-May-15 05:26N 19°13' W 096°08'0 0.0
2017-May-15 04:59N 19°13' W 096°08'0 0.0
2017-May-15 04:29N 19°13' W 096°08'0 0.0
2017-May-15 03:56N 19°13' W 096°08'0 0.0
2017-May-15 03:29N 19°13' W 096°08'0 0.0
2017-May-15 02:59N 19°13' W 096°08'0 0.0
2017-May-15 02:29N 19°13' W 096°08'0 0.0
2017-May-15 01:59N 19°13' W 096°08'0 0.0
2017-May-15 01:29N 19°13' W 096°08'0 0.0
2017-May-15 00:59N 19°13' W 096°08'0 0.0
2017-May-15 00:29N 19°13' W 096°08'0 0.0
2017-May-14 23:59N 19°13' W 096°08'0 0.0
2017-May-14 23:29N 19°13' W 096°08'0 0.0
2017-May-14 22:59N 19°13' W 096°08'0 0.0
2017-May-14 22:29N 19°13' W 096°08'0 0.0
2017-May-14 21:59N 19°13' W 096°08'0 0.0
2017-May-14 21:29N 19°13' W 096°08'0 0.0
2017-May-14 20:56N 19°13' W 096°08'0 0.0
2017-May-14 20:29N 19°13' W 096°08'0 0.0
2017-May-14 19:59N 19°13' W 096°08'0 0.0
2017-May-14 19:26N 19°13' W 096°08'0 0.0
2017-May-14 18:56N 19°13' W 096°08'0 0.0
2017-May-14 18:26N 19°13' W 096°08'0 0.0
2017-May-14 17:56N 19°13' W 096°08'0 0.0
2017-May-14 17:14N 19°13' W 096°08'0 0.0
2017-May-14 16:56N 19°13' W 096°08'0 0.0
2017-May-14 16:26N 19°13' W 096°08'0 0.0
2017-May-14 15:59N 19°13' W 096°08'0 0.0
2017-May-14 15:26N 19°13' W 096°08'0 0.0
2017-May-14 14:56N 19°13' W 096°08'0 0.0
2017-May-14 14:26N 19°13' W 096°08'0 0.0
2017-May-14 13:29N 19°13' W 096°08'0 0.3
2017-May-14 12:56N 19°13' W 096°08'2 3.8
2017-May-14 12:31N 19°12' W 096°06'3 6.0
2017-May-14 12:01N 19°11' W 096°03'3 5.6
2017-May-14 11:29N 19°10' W 096°01'0 0.1
2017-May-14 10:59N 19°10' W 096°01'0 0.0
2017-May-14 10:29N 19°10' W 096°01'0 0.1
2017-May-14 09:47N 19°10' W 096°01'0 0.0
2017-May-14 09:29N 19°10' W 096°01'0 0.1
2017-May-14 08:53N 19°10' W 096°01'0 0.0
2017-May-14 08:29N 19°10' W 096°01'0 0.0
2017-May-14 07:59N 19°10' W 096°01'0 0.0
2017-May-14 07:29N 19°10' W 096°01'0 0.0
2017-May-14 06:59N 19°10' W 096°01'0 0.0
2017-May-14 06:23N 19°10' W 096°01'0 0.0
2017-May-14 05:59N 19°10' W 096°01'0 0.0
2017-May-14 05:29N 19°10' W 096°01'0 0.0
2017-May-14 04:59N 19°10' W 096°01'0 0.0
2017-May-14 04:29N 19°10' W 096°01'0 0.0
2017-May-14 03:59N 19°10' W 096°01'0 0.0
2017-May-14 03:29N 19°10' W 096°01'0 0.0
2017-May-14 02:59N 19°10' W 096°01'0 0.1
2017-May-14 02:29N 19°10' W 096°01'0 0.0
2017-May-14 01:59N 19°10' W 096°01'0 0.0
2017-May-14 01:29N 19°10' W 096°01'0 0.0
2017-May-14 00:59N 19°10' W 096°01'0 0.0
2017-May-14 00:29N 19°10' W 096°01'0 0.0
2017-May-13 23:59N 19°10' W 096°01'0 0.0
2017-May-13 23:29N 19°10' W 096°01'0 0.0
2017-May-13 22:59N 19°10' W 096°01'0 0.0
2017-May-13 22:29N 19°10' W 096°01'0 0.0
2017-May-13 21:59N 19°10' W 096°01'0 0.0
2017-May-13 21:29N 19°10' W 096°01'0 0.0
2017-May-13 20:59N 19°10' W 096°01'0 0.0
2017-May-13 20:29N 19°10' W 096°01'0 0.1
2017-May-13 19:59N 19°10' W 096°01'0 0.1
2017-May-13 19:29N 19°10' W 096°01'0 0.1
2017-May-13 18:53N 19°10' W 096°01'0 0.1
2017-May-13 18:29N 19°10' W 096°01'0 0.2
2017-May-13 17:59N 19°10' W 096°00'0 0.2
2017-May-13 17:29N 19°10' W 096°00'0 0.0
2017-May-13 16:53N 19°10' W 096°00'0 0.0
2017-May-13 16:29N 19°10' W 096°00'0 0.0
2017-May-13 15:59N 19°10' W 096°00'0 0.1
2017-May-13 15:29N 19°10' W 096°00'0 0.0
2017-May-13 14:59N 19°10' W 096°00'0 0.0
2017-May-13 14:29N 19°10' W 096°00'0 0.0
2017-May-13 13:29N 19°10' W 096°00'0 0.0
2017-May-13 12:53N 19°10' W 096°00'0 0.1
2017-May-13 12:23N 19°10' W 096°00'0 0.1
2017-May-13 11:59N 19°10' W 096°00'0 0.1
2017-May-13 11:29N 19°10' W 096°00'0 0.1
2017-May-13 10:59N 19°10' W 096°00'0 0.1
2017-May-13 10:29N 19°10' W 096°00'0 0.1
2017-May-13 09:59N 19°10' W 096°00'0 0.1
2017-May-13 09:29N 19°10' W 096°01'0 0.1
2017-May-13 08:47N 19°10' W 096°01'0 0.1
2017-May-13 08:23N 19°10' W 096°01'0 0.0
2017-May-13 07:59N 19°10' W 096°01'0 0.0
2017-May-13 07:29N 19°10' W 096°01'0 0.0
2017-May-13 06:53N 19°10' W 096°01'0 0.0
2017-May-13 06:29N 19°10' W 096°01'0 0.2
2017-May-13 05:59N 19°10' W 096°01'0 0.0
2017-May-13 05:29N 19°10' W 096°01'0 0.0
2017-May-13 04:59N 19°10' W 096°01'0 0.0
2017-May-13 04:23N 19°10' W 096°01'0 0.0
2017-May-13 03:47N 19°10' W 096°01'0 0.0
2017-May-13 03:29N 19°10' W 096°01'0 0.0
2017-May-13 02:59N 19°10' W 096°01'0 0.1
2017-May-13 02:29N 19°10' W 096°01'0 0.0
2017-May-13 01:59N 19°10' W 096°01'0 0.0
2017-May-13 01:29N 19°10' W 096°01'0 0.0
2017-May-13 00:53N 19°10' W 096°01'0 0.0
2017-May-13 00:23N 19°10' W 096°01'0 0.0
2017-May-12 23:59N 19°10' W 096°01'0 0.0
2017-May-12 23:29N 19°10' W 096°01'0 0.0
2017-May-12 22:53N 19°10' W 096°01'0 0.0
2017-May-12 22:29N 19°10' W 096°01'0 0.0
2017-May-12 21:53N 19°10' W 096°01'0 0.0
2017-May-12 21:29N 19°10' W 096°01'0 0.0
2017-May-12 20:59N 19°10' W 096°01'0 0.1
2017-May-12 20:29N 19°10' W 096°01'0 0.0
2017-May-12 19:53N 19°10' W 096°01'0 0.0
2017-May-12 19:29N 19°10' W 096°01'0 0.0
2017-May-12 18:59N 19°10' W 096°01'0 0.0
2017-May-12 18:29N 19°10' W 096°01'0 0.1
2017-May-12 17:59N 19°10' W 096°01'0 0.0
2017-May-12 17:29N 19°10' W 096°01'0 0.0
2017-May-12 16:59N 19°10' W 096°01'0 0.0
2017-May-12 16:29N 19°10' W 096°01'0 0.0
2017-May-12 15:59N 19°10' W 096°01'0 0.0
2017-May-12 15:29N 19°10' W 096°01'0 0.0
2017-May-12 14:59N 19°10' W 096°01'0 0.0
2017-May-12 13:59N 19°10' W 096°01'0 0.1
2017-May-12 13:23N 19°10' W 096°01'0 0.0
2017-May-12 12:53N 19°10' W 096°01'0 0.0
2017-May-12 12:23N 19°10' W 096°01'0 0.0
2017-May-12 11:59N 19°10' W 096°01'0 0.0
2017-May-12 11:29N 19°10' W 096°01'0 0.0
2017-May-12 10:59N 19°10' W 096°01'0 0.0
2017-May-12 10:29N 19°10' W 096°01'0 0.0
2017-May-12 09:59N 19°10' W 096°01'0 0.0
2017-May-12 09:29N 19°10' W 096°01'0 0.0
2017-May-12 08:59N 19°10' W 096°01'0 0.0
2017-May-12 08:29N 19°10' W 096°01'0 0.0
2017-May-12 07:59N 19°10' W 096°01'0 0.0
2017-May-12 07:29N 19°10' W 096°01'0 0.0
2017-May-12 06:59N 19°10' W 096°01'0 0.0
2017-May-12 06:29N 19°10' W 096°01'0 0.0
2017-May-12 05:59N 19°10' W 096°01'0 0.0
2017-May-12 05:23N 19°10' W 096°01'0 0.0
2017-May-12 04:47N 19°10' W 096°01'0 0.0
2017-May-12 04:29N 19°10' W 096°01'0 0.0
2017-May-12 03:59N 19°10' W 096°01'0 0.0
2017-May-12 03:29N 19°10' W 096°01'0 0.0
2017-May-12 02:59N 19°10' W 096°01'0 0.0
2017-May-12 02:29N 19°10' W 096°01'0 0.0
2017-May-12 01:59N 19°10' W 096°01'0 0.0
2017-May-12 01:29N 19°10' W 096°01'0 0.0
2017-May-12 00:59N 19°10' W 096°01'0 0.0
2017-May-12 00:29N 19°10' W 096°01'0 0.0
2017-May-11 23:59N 19°10' W 096°01'0 0.0
2017-May-11 23:29N 19°10' W 096°01'0 0.0
2017-May-11 22:59N 19°10' W 096°01'0 0.0
2017-May-11 22:29N 19°10' W 096°01'0 0.0
2017-May-11 21:59N 19°10' W 096°01'0 0.0
2017-May-11 21:29N 19°10' W 096°01'0 0.0
2017-May-11 20:59N 19°10' W 096°01'0 0.0
2017-May-11 20:29N 19°10' W 096°01'0 0.0
2017-May-11 19:59N 19°10' W 096°01'0 0.0
2017-May-11 19:29N 19°10' W 096°01'0 0.0
2017-May-11 18:59N 19°10' W 096°01'0 0.1
2017-May-11 18:29N 19°10' W 096°01'0 0.0
2017-May-11 17:59N 19°10' W 096°01'0 0.0
2017-May-11 17:29N 19°10' W 096°01'0 0.1
2017-May-11 16:59N 19°10' W 096°01'0 0.1
2017-May-11 16:29N 19°10' W 096°01'0 0.0
2017-May-11 15:59N 19°10' W 096°01'0 0.1
2017-May-11 15:29N 19°10' W 096°01'0 0.0
2017-May-11 14:59N 19°10' W 096°01'1 1.2
2017-May-11 14:00N 19°11' W 096°02'5 9.8
2017-May-11 13:30N 19°16' W 096°00'510.6
2017-May-11 13:01N 19°21' W 095°60'510.7
2017-May-11 12:30N 19°26' W 095°60'510.7
2017-May-11 12:00N 19°32' W 095°59'511.0
2017-May-11 11:30N 19°37' W 095°59'611.1
2017-May-11 11:00N 19°43' W 095°59'711.3
2017-May-11 10:21N 19°50' W 095°58'1611.1
2017-May-11 08:54N 20°06' W 096°01'511.4
2017-May-11 08:30N 20°10' W 096°04'611.4
2017-May-11 08:00N 20°15' W 096°07'611.3
2017-May-11 07:30N 20°20' W 096°10'611.4
2017-May-11 07:00N 20°24' W 096°13'611.3
2017-May-11 06:31N 20°29' W 096°16'611.5
2017-May-11 05:59N 20°34' W 096°19'511.2
2017-May-11 05:30N 20°39' W 096°22'711.5
2017-May-11 04:56N 20°45' W 096°26'511.7
2017-May-11 04:30N 20°49' W 096°29'  
Track history (hours):
 
Tides and Currents Weather Stations Pressure Air Temp Water Temp Dewpoint Dewpoint Depression Visibility Wind Speed Wind Dir Waves Ship Positions

MSC Gina

Last reported at 2017-May-20 19:43 UTC. Time now 2017-May-24 02:14 UTC.
Position N 26°20' W 079°26'.

Length 45 m; draft 2.3 m.

Type: Other ship. MMSI: 357542000.

Date/timePositionNaut miles runAvg speedWind from/ knotsBaromVisibWave heightAir tempDewpointWater temp
2017-May-20 19:43N 26°20' W 079°26'522.4
2017-May-20 19:30N 26°15' W 079°26'2022.6
2017-May-20 18:38N 25°55' W 079°30'322.7
2017-May-20 18:30N 25°53' W 079°31'1522.9
2017-May-20 17:52N 25°38' W 079°33'922.6
2017-May-20 17:28N 25°29' W 079°34'78016.1
2017-May-18 16:57N 28°44' W 093°43'818.1
2017-May-18 16:30N 28°49' W 093°50'918.1
2017-May-18 16:00N 28°54' W 093°59'918.1
2017-May-18 15:30N 28°59' W 094°08'3916.3
2017-May-18 13:08N 29°21' W 094°44'212.9
2017-May-18 13:00N 29°21' W 094°46'612.6
2017-May-18 12:30N 29°26' W 094°50'713.4
2017-May-18 12:00N 29°32' W 094°53'612.6
2017-May-18 11:30N 29°37' W 094°58'2 4.5
2017-May-18 10:58N 29°37' W 095°00'0 0.0
2017-May-18 10:28N 29°37' W 095°00'0 0.0
2017-May-18 09:58N 29°37' W 095°00'0 0.0
2017-May-18 09:28N 29°37' W 095°00'0 0.0
2017-May-18 08:58N 29°37' W 095°00'0 0.0
2017-May-18 08:28N 29°37' W 095°00'0 0.0
2017-May-18 06:37N 29°37' W 095°00'0 0.1
2017-May-18 06:28N 29°37' W 095°00'0 0.0
2017-May-18 05:58N 29°37' W 095°00'0 0.0
2017-May-18 05:28N 29°37' W 095°00'0 0.0
2017-May-18 04:58N 29°37' W 095°00'0 0.0
2017-May-18 04:28N 29°37' W 095°00'0 0.0
2017-May-18 03:58N 29°37' W 095°00'0 0.0
2017-May-18 03:28N 29°37' W 095°00'0 0.0
2017-May-18 02:58N 29°37' W 095°00'0 0.0
2017-May-18 02:28N 29°37' W 095°00'0 0.0
2017-May-18 01:58N 29°37' W 095°00'0 0.0
2017-May-18 01:28N 29°37' W 095°00'0 0.0
2017-May-18 00:58N 29°37' W 095°00'0 0.0
2017-May-18 00:28N 29°37' W 095°00'0 0.0
2017-May-17 23:58N 29°37' W 095°00'0 0.0
2017-May-17 23:28N 29°37' W 095°00'0 0.0
2017-May-17 23:01N 29°37' W 095°00'0 0.0
2017-May-17 22:31N 29°37' W 095°00'1 1.6
2017-May-17 22:00N 29°37' W 095°01'1 2.5
2017-May-17 21:30N 29°37' W 094°60'3 5.7
2017-May-17 21:00N 29°36' W 094°57'612.0
2017-May-17 20:31N 29°31' W 094°53'713.2
2017-May-17 20:01N 29°25' W 094°50'711.8
2017-May-17 19:23N 29°21' W 094°43'56412.1
2017-May-15 20:47N 20°01' W 095°53'518.4
2017-May-15 20:30N 19°55' W 095°54'918.3
2017-May-15 20:00N 19°46' W 095°55'611.9
2017-May-15 19:30N 19°41' W 095°55'6 6.1
2017-May-15 18:34N 19°35' W 095°56'117.9
2017-May-15 18:31N 19°34' W 095°56'918.3
2017-May-15 18:01N 19°25' W 095°57'918.8
2017-May-15 17:31N 19°15' W 095°58'714.7
2017-May-15 17:00N 19°11' W 096°04'4 6.9
2017-May-15 16:29N 19°12' W 096°08'0 0.7
2017-May-15 15:59N 19°13' W 096°08'0 0.0
2017-May-15 15:29N 19°13' W 096°08'0 0.0
2017-May-15 14:59N 19°13' W 096°08'0 0.0
2017-May-15 13:56N 19°13' W 096°08'0 0.0
2017-May-15 13:29N 19°13' W 096°08'0 0.0
2017-May-15 12:56N 19°13' W 096°08'0 0.0
2017-May-15 12:26N 19°13' W 096°08'0 0.0
2017-May-15 11:59N 19°13' W 096°08'0 0.0
2017-May-15 11:29N 19°13' W 096°08'0 0.0
2017-May-15 10:56N 19°13' W 096°08'0 0.0
2017-May-15 10:26N 19°13' W 096°08'0 0.0
2017-May-15 09:59N 19°13' W 096°08'0 0.0
2017-May-15 09:29N 19°13' W 096°08'0 0.0
2017-May-15 08:59N 19°13' W 096°08'0 0.0
2017-May-15 08:26N 19°13' W 096°08'0 0.0
2017-May-15 07:59N 19°13' W 096°08'0 0.0
2017-May-15 07:29N 19°13' W 096°08'0 0.0
2017-May-15 06:59N 19°13' W 096°08'0 0.0
2017-May-15 06:29N 19°13' W 096°08'0 0.0
2017-May-15 05:59N 19°13' W 096°08'0 0.0
2017-May-15 05:26N 19°13' W 096°08'0 0.0
2017-May-15 04:59N 19°13' W 096°08'0 0.0
2017-May-15 04:29N 19°13' W 096°08'0 0.0
2017-May-15 03:56N 19°13' W 096°08'0 0.0
2017-May-15 03:29N 19°13' W 096°08'0 0.0
2017-May-15 02:59N 19°13' W 096°08'0 0.0
2017-May-15 02:29N 19°13' W 096°08'0 0.0
2017-May-15 01:59N 19°13' W 096°08'0 0.0
2017-May-15 01:29N 19°13' W 096°08'0 0.0
2017-May-15 00:59N 19°13' W 096°08'0 0.0
2017-May-15 00:29N 19°13' W 096°08'0 0.0
2017-May-14 23:59N 19°13' W 096°08'0 0.0
2017-May-14 23:29N 19°13' W 096°08'0 0.0
2017-May-14 22:59N 19°13' W 096°08'0 0.0
2017-May-14 22:29N 19°13' W 096°08'0 0.0
2017-May-14 21:59N 19°13' W 096°08'0 0.0
2017-May-14 21:29N 19°13' W 096°08'0 0.0
2017-May-14 20:56N 19°13' W 096°08'0 0.0
2017-May-14 20:29N 19°13' W 096°08'0 0.0
2017-May-14 19:59N 19°13' W 096°08'0 0.0
2017-May-14 19:26N 19°13' W 096°08'0 0.0
2017-May-14 18:56N 19°13' W 096°08'0 0.0
2017-May-14 18:26N 19°13' W 096°08'0 0.0
2017-May-14 17:56N 19°13' W 096°08'0 0.0
2017-May-14 17:14N 19°13' W 096°08'0 0.0
2017-May-14 16:56N 19°13' W 096°08'0 0.0
2017-May-14 16:26N 19°13' W 096°08'0 0.0
2017-May-14 15:59N 19°13' W 096°08'0 0.0
2017-May-14 15:26N 19°13' W 096°08'0 0.0
2017-May-14 14:56N 19°13' W 096°08'0 0.0
2017-May-14 14:26N 19°13' W 096°08'0 0.0
2017-May-14 13:29N 19°13' W 096°08'0 0.3
2017-May-14 12:56N 19°13' W 096°08'2 3.8
2017-May-14 12:31N 19°12' W 096°06'3 6.0
2017-May-14 12:01N 19°11' W 096°03'3 5.6
2017-May-14 11:29N 19°10' W 096°01'0 0.1
2017-May-14 10:59N 19°10' W 096°01'0 0.0
2017-May-14 10:29N 19°10' W 096°01'0 0.1
2017-May-14 09:47N 19°10' W 096°01'0 0.0
2017-May-14 09:29N 19°10' W 096°01'0 0.1
2017-May-14 08:53N 19°10' W 096°01'0 0.0
2017-May-14 08:29N 19°10' W 096°01'0 0.0
2017-May-14 07:59N 19°10' W 096°01'0 0.0
2017-May-14 07:29N 19°10' W 096°01'0 0.0
2017-May-14 06:59N 19°10' W 096°01'0 0.0
2017-May-14 06:23N 19°10' W 096°01'0 0.0
2017-May-14 05:59N 19°10' W 096°01'0 0.0
2017-May-14 05:29N 19°10' W 096°01'0 0.0
2017-May-14 04:59N 19°10' W 096°01'0 0.0
2017-May-14 04:29N 19°10' W 096°01'0 0.0
2017-May-14 03:59N 19°10' W 096°01'0 0.0
2017-May-14 03:29N 19°10' W 096°01'0 0.0
2017-May-14 02:59N 19°10' W 096°01'0 0.1
2017-May-14 02:29N 19°10' W 096°01'0 0.0
2017-May-14 01:59N 19°10' W 096°01'0 0.0
2017-May-14 01:29N 19°10' W 096°01'0 0.0
2017-May-14 00:59N 19°10' W 096°01'0 0.0
2017-May-14 00:29N 19°10' W 096°01'0 0.0
2017-May-13 23:59N 19°10' W 096°01'0 0.0
2017-May-13 23:29N 19°10' W 096°01'0 0.0
2017-May-13 22:59N 19°10' W 096°01'0 0.0
2017-May-13 22:29N 19°10' W 096°01'0 0.0
2017-May-13 21:59N 19°10' W 096°01'0 0.0
2017-May-13 21:29N 19°10' W 096°01'0 0.0
2017-May-13 20:59N 19°10' W 096°01'0 0.0
2017-May-13 20:29N 19°10' W 096°01'0 0.1
2017-May-13 19:59N 19°10' W 096°01'0 0.1
2017-May-13 19:29N 19°10' W 096°01'0 0.1
2017-May-13 18:53N 19°10' W 096°01'0 0.1
2017-May-13 18:29N 19°10' W 096°01'0 0.2
2017-May-13 17:59N 19°10' W 096°00'0 0.2
2017-May-13 17:29N 19°10' W 096°00'0 0.0
2017-May-13 16:53N 19°10' W 096°00'0 0.0
2017-May-13 16:29N 19°10' W 096°00'0 0.0
2017-May-13 15:59N 19°10' W 096°00'0 0.1
2017-May-13 15:29N 19°10' W 096°00'0 0.0
2017-May-13 14:59N 19°10' W 096°00'0 0.0
2017-May-13 14:29N 19°10' W 096°00'0 0.0
2017-May-13 13:29N 19°10' W 096°00'0 0.0
2017-May-13 12:53N 19°10' W 096°00'0 0.1
2017-May-13 12:23N 19°10' W 096°00'0 0.1
2017-May-13 11:59N 19°10' W 096°00'0 0.1
2017-May-13 11:29N 19°10' W 096°00'0 0.1
2017-May-13 10:59N 19°10' W 096°00'0 0.1
2017-May-13 10:29N 19°10' W 096°00'0 0.1
2017-May-13 09:59N 19°10' W 096°00'0 0.1
2017-May-13 09:29N 19°10' W 096°01'0 0.1
2017-May-13 08:47N 19°10' W 096°01'0 0.1
2017-May-13 08:23N 19°10' W 096°01'0 0.0
2017-May-13 07:59N 19°10' W 096°01'0 0.0
2017-May-13 07:29N 19°10' W 096°01'0 0.0
2017-May-13 06:53N 19°10' W 096°01'0 0.0
2017-May-13 06:29N 19°10' W 096°01'0 0.2
2017-May-13 05:59N 19°10' W 096°01'0 0.0
2017-May-13 05:29N 19°10' W 096°01'0 0.0
2017-May-13 04:59N 19°10' W 096°01'0 0.0
2017-May-13 04:23N 19°10' W 096°01'0 0.0
2017-May-13 03:47N 19°10' W 096°01'0 0.0
2017-May-13 03:29N 19°10' W 096°01'0 0.0
2017-May-13 02:59N 19°10' W 096°01'0 0.1
2017-May-13 02:29N 19°10' W 096°01'0 0.0
2017-May-13 01:59N 19°10' W 096°01'0 0.0
2017-May-13 01:29N 19°10' W 096°01'0 0.0
2017-May-13 00:53N 19°10' W 096°01'0 0.0
2017-May-13 00:23N 19°10' W 096°01'0 0.0
2017-May-12 23:59N 19°10' W 096°01'0 0.0
2017-May-12 23:29N 19°10' W 096°01'0 0.0
2017-May-12 22:53N 19°10' W 096°01'0 0.0
2017-May-12 22:29N 19°10' W 096°01'0 0.0
2017-May-12 21:53N 19°10' W 096°01'0 0.0
2017-May-12 21:29N 19°10' W 096°01'0 0.0
2017-May-12 20:59N 19°10' W 096°01'0 0.1
2017-May-12 20:29N 19°10' W 096°01'0 0.0
2017-May-12 19:53N 19°10' W 096°01'0 0.0
2017-May-12 19:29N 19°10' W 096°01'0 0.0
2017-May-12 18:59N 19°10' W 096°01'0 0.0
2017-May-12 18:29N 19°10' W 096°01'0 0.1
2017-May-12 17:59N 19°10' W 096°01'0 0.0
2017-May-12 17:29N 19°10' W 096°01'0 0.0
2017-May-12 16:59N 19°10' W 096°01'0 0.0
2017-May-12 16:29N 19°10' W 096°01'0 0.0
2017-May-12 15:59N 19°10' W 096°01'0 0.0
2017-May-12 15:29N 19°10' W 096°01'0 0.0
2017-May-12 14:59N 19°10' W 096°01'0 0.0
2017-May-12 13:59N 19°10' W 096°01'0 0.1
2017-May-12 13:23N 19°10' W 096°01'0 0.0
2017-May-12 12:53N 19°10' W 096°01'0 0.0
2017-May-12 12:23N 19°10' W 096°01'0 0.0
2017-May-12 11:59N 19°10' W 096°01'0 0.0
2017-May-12 11:29N 19°10' W 096°01'0 0.0
2017-May-12 10:59N 19°10' W 096°01'0 0.0
2017-May-12 10:29N 19°10' W 096°01'0 0.0
2017-May-12 09:59N 19°10' W 096°01'0 0.0
2017-May-12 09:29N 19°10' W 096°01'0 0.0
2017-May-12 08:59N 19°10' W 096°01'0 0.0
2017-May-12 08:29N 19°10' W 096°01'0 0.0
2017-May-12 07:59N 19°10' W 096°01'0 0.0
2017-May-12 07:29N 19°10' W 096°01'0 0.0
2017-May-12 06:59N 19°10' W 096°01'0 0.0
2017-May-12 06:29N 19°10' W 096°01'0 0.0
2017-May-12 05:59N 19°10' W 096°01'0 0.0
2017-May-12 05:23N 19°10' W 096°01'0 0.0
2017-May-12 04:47N 19°10' W 096°01'0 0.0
2017-May-12 04:29N 19°10' W 096°01'0 0.0
2017-May-12 03:59N 19°10' W 096°01'0 0.0
2017-May-12 03:29N 19°10' W 096°01'0 0.0
2017-May-12 02:59N 19°10' W 096°01'0 0.0
2017-May-12 02:29N 19°10' W 096°01'0 0.0
2017-May-12 01:59N 19°10' W 096°01'0 0.0
2017-May-12 01:29N 19°10' W 096°01'0 0.0
2017-May-12 00:59N 19°10' W 096°01'0 0.0
2017-May-12 00:29N 19°10' W 096°01'0 0.0
2017-May-11 23:59N 19°10' W 096°01'0 0.0
2017-May-11 23:29N 19°10' W 096°01'0 0.0
2017-May-11 22:59N 19°10' W 096°01'0 0.0
2017-May-11 22:29N 19°10' W 096°01'0 0.0
2017-May-11 21:59N 19°10' W 096°01'0 0.0
2017-May-11 21:29N 19°10' W 096°01'0 0.0
2017-May-11 20:59N 19°10' W 096°01'0 0.0
2017-May-11 20:29N 19°10' W 096°01'0 0.0
2017-May-11 19:59N 19°10' W 096°01'0 0.0
2017-May-11 19:29N 19°10' W 096°01'0 0.0
2017-May-11 18:59N 19°10' W 096°01'0 0.1
2017-May-11 18:29N 19°10' W 096°01'0 0.0
2017-May-11 17:59N 19°10' W 096°01'0 0.0
2017-May-11 17:29N 19°10' W 096°01'0 0.1
2017-May-11 16:59N 19°10' W 096°01'0 0.1
2017-May-11 16:29N 19°10' W 096°01'0 0.0
2017-May-11 15:59N 19°10' W 096°01'0 0.1
2017-May-11 15:29N 19°10' W 096°01'0 0.0
2017-May-11 14:59N 19°10' W 096°01'1 1.2
2017-May-11 14:00N 19°11' W 096°02'5 9.8
2017-May-11 13:30N 19°16' W 096°00'510.6
2017-May-11 13:01N 19°21' W 095°60'510.7
2017-May-11 12:30N 19°26' W 095°60'510.7
2017-May-11 12:00N 19°32' W 095°59'511.0
2017-May-11 11:30N 19°37' W 095°59'611.1
2017-May-11 11:00N 19°43' W 095°59'711.3
2017-May-11 10:21N 19°50' W 095°58'1611.1
2017-May-11 08:54N 20°06' W 096°01'511.4
2017-May-11 08:30N 20°10' W 096°04'611.4
2017-May-11 08:00N 20°15' W 096°07'611.3
2017-May-11 07:30N 20°20' W 096°10'611.4
2017-May-11 07:00N 20°24' W 096°13'611.3
2017-May-11 06:31N 20°29' W 096°16'611.5
2017-May-11 05:59N 20°34' W 096°19'511.2
2017-May-11 05:30N 20°39' W 096°22'711.5
2017-May-11 04:56N 20°45' W 096°26'511.7
2017-May-11 04:30N 20°49' W 096°29'  

Dump ship's entire track history